sensor_id;sensor_type;location;lat;lon;timestamp;pressure;altitude;pressure_sealevel;temperature;humidity
53754;BME280;39667;52.274;20.964;2023-03-04T00:01:33;100059.73;;;-0.25;78.88
53754;BME280;39667;52.274;20.964;2023-03-04T00:05:11;100053.73;;;-0.23;78.93
53754;BME280;39667;52.274;20.964;2023-03-04T00:08:45;100052.25;;;-0.21;78.86
53754;BME280;39667;52.274;20.964;2023-03-04T00:12:33;100056.89;;;-0.16;78.88
53754;BME280;39667;52.274;20.964;2023-03-04T00:16:31;100055.83;;;-0.17;78.80
53754;BME280;39667;52.274;20.964;2023-03-04T00:20:55;100050.53;;;-0.15;78.80
53754;BME280;39667;52.274;20.964;2023-03-04T00:24:51;100038.30;;;-0.13;78.80
53754;BME280;39667;52.274;20.964;2023-03-04T00:28:43;100035.89;;;-0.12;78.79
53754;BME280;39667;52.274;20.964;2023-03-04T00:32:32;100025.70;;;-0.11;78.72
53754;BME280;39667;52.274;20.964;2023-03-04T00:36:27;100018.45;;;-0.10;78.71
53754;BME280;39667;52.274;20.964;2023-03-04T00:40:17;99999.14;;;-0.07;78.84
53754;BME280;39667;52.274;20.964;2023-03-04T00:44:18;99996.80;;;-0.05;78.78
53754;BME280;39667;52.274;20.964;2023-03-04T00:47:57;99997.83;;;-0.05;78.83
53754;BME280;39667;52.274;20.964;2023-03-04T00:54:42;99986.62;;;0.03;78.93
53754;BME280;39667;52.274;20.964;2023-03-04T00:58:42;99984.90;;;0.04;78.66
53754;BME280;39667;52.274;20.964;2023-03-04T01:02:30;99975.30;;;0.01;78.68
53754;BME280;39667;52.274;20.964;2023-03-04T01:06:32;99962.73;;;-0.03;78.64
53754;BME280;39667;52.274;20.964;2023-03-04T01:10:42;99957.66;;;-0.05;78.79
53754;BME280;39667;52.274;20.964;2023-03-04T01:14:30;99949.40;;;-0.03;78.84
53754;BME280;39667;52.274;20.964;2023-03-04T01:18:20;99946.50;;;-0.08;78.81
53754;BME280;39667;52.274;20.964;2023-03-04T01:22:20;99922.17;;;-0.05;78.77
53754;BME280;39667;52.274;20.964;2023-03-04T01:26:26;99913.67;;;-0.13;78.55
53754;BME280;39667;52.274;20.964;2023-03-04T01:30:03;99893.02;;;-0.14;78.69
53754;BME280;39667;52.274;20.964;2023-03-04T01:34:13;99867.17;;;-0.17;78.66
53754;BME280;39667;52.274;20.964;2023-03-04T01:38:22;99854.00;;;-0.24;78.83
53754;BME280;39667;52.274;20.964;2023-03-04T01:46:21;99845.73;;;-0.22;78.90
53754;BME280;39667;52.274;20.964;2023-03-04T01:50:16;99850.59;;;-0.22;79.17
53754;BME280;39667;52.274;20.964;2023-03-04T01:54:16;99848.77;;;-0.19;79.22
53754;BME280;39667;52.274;20.964;2023-03-04T01:58:27;99831.66;;;-0.24;79.28
53754;BME280;39667;52.274;20.964;2023-03-04T02:02:38;99818.52;;;-0.23;79.23
53754;BME280;39667;52.274;20.964;2023-03-04T02:06:43;99796.40;;;-0.23;79.22
53754;BME280;39667;52.274;20.964;2023-03-04T02:10:51;99816.02;;;-0.21;79.45
53754;BME280;39667;52.274;20.964;2023-03-04T02:14:47;99820.40;;;-0.18;79.54
53754;BME280;39667;52.274;20.964;2023-03-04T02:19:04;99814.48;;;-0.13;79.49
53754;BME280;39667;52.274;20.964;2023-03-04T02:23:11;99806.59;;;-0.10;79.49
53754;BME280;39667;52.274;20.964;2023-03-04T02:27:34;99803.73;;;-0.13;79.60
53754;BME280;39667;52.274;20.964;2023-03-04T02:35:39;99817.04;;;-0.15;80.09
53754;BME280;39667;52.274;20.964;2023-03-04T02:39:42;99813.64;;;-0.12;80.28
53754;BME280;39667;52.274;20.964;2023-03-04T02:44:19;99810.94;;;-0.01;80.32
53754;BME280;39667;52.274;20.964;2023-03-04T02:48:23;99812.48;;;-0.02;80.34
53754;BME280;39667;52.274;20.964;2023-03-04T02:51:36;99803.57;;;0.01;80.35
53754;BME280;39667;52.274;20.964;2023-03-04T02:55:29;99798.45;;;0.04;80.40
53754;BME280;39667;52.274;20.964;2023-03-04T02:59:03;99802.31;;;0.07;80.31
53754;BME280;39667;52.274;20.964;2023-03-04T03:02:50;99804.28;;;0.10;80.39
53754;BME280;39667;52.274;20.964;2023-03-04T03:06:00;99798.63;;;0.13;80.42
53754;BME280;39667;52.274;20.964;2023-03-04T03:09:57;99794.30;;;0.13;80.38
53754;BME280;39667;52.274;20.964;2023-03-04T03:13:36;99792.61;;;0.14;80.42
53754;BME280;39667;52.274;20.964;2023-03-04T03:17:04;99791.33;;;0.19;80.33
53754;BME280;39667;52.274;20.964;2023-03-04T03:20:16;99785.52;;;0.21;80.29
53754;BME280;39667;52.274;20.964;2023-03-04T03:23:38;99788.41;;;0.27;80.22
53754;BME280;39667;52.274;20.964;2023-03-04T03:27:08;99780.30;;;0.28;80.00
53754;BME280;39667;52.274;20.964;2023-03-04T03:30:53;99772.04;;;0.31;79.88
53754;BME280;39667;52.274;20.964;2023-03-04T03:35:07;99781.66;;;0.35;79.83
53754;BME280;39667;52.274;20.964;2023-03-04T03:38:55;99770.92;;;0.43;79.98
53754;BME280;39667;52.274;20.964;2023-03-04T03:42:48;99761.23;;;0.44;79.52
53754;BME280;39667;52.274;20.964;2023-03-04T03:46:35;99764.08;;;0.46;79.52
53754;BME280;39667;52.274;20.964;2023-03-04T03:50:25;99760.93;;;0.46;79.54
53754;BME280;39667;52.274;20.964;2023-03-04T03:54:15;99757.05;;;0.51;79.45
53754;BME280;39667;52.274;20.964;2023-03-04T03:57:04;99752.23;;;0.53;79.40
53754;BME280;39667;52.274;20.964;2023-03-04T04:00:35;99748.45;;;0.54;79.41
53754;BME280;39667;52.274;20.964;2023-03-04T04:04:25;99749.16;;;0.55;79.31
53754;BME280;39667;52.274;20.964;2023-03-04T04:08:15;99744.91;;;0.59;79.32
53754;BME280;39667;52.274;20.964;2023-03-04T04:12:05;99743.99;;;0.64;79.34
53754;BME280;39667;52.274;20.964;2023-03-04T04:16:41;99743.67;;;0.74;78.94
53754;BME280;39667;52.274;20.964;2023-03-04T04:20:45;99737.81;;;0.75;78.94
53754;BME280;39667;52.274;20.964;2023-03-04T04:24:35;99736.08;;;0.76;78.78
53754;BME280;39667;52.274;20.964;2023-03-04T04:28:49;99736.05;;;0.74;78.64
53754;BME280;39667;52.274;20.964;2023-03-04T04:33:00;99734.84;;;0.74;78.70
53754;BME280;39667;52.274;20.964;2023-03-04T04:36:45;99732.80;;;0.76;78.61
53754;BME280;39667;52.274;20.964;2023-03-04T04:41:51;99730.52;;;0.84;78.47
53754;BME280;39667;52.274;20.964;2023-03-04T04:45:58;99724.33;;;0.86;78.25
53754;BME280;39667;52.274;20.964;2023-03-04T04:49:36;99725.95;;;0.89;78.23
53754;BME280;39667;52.274;20.964;2023-03-04T04:53:26;99727.63;;;0.95;78.11
53754;BME280;39667;52.274;20.964;2023-03-04T04:57:40;99726.84;;;1.00;78.00
53754;BME280;39667;52.274;20.964;2023-03-04T05:01:36;99720.78;;;1.01;77.73
53754;BME280;39667;52.274;20.964;2023-03-04T05:05:06;99725.80;;;1.01;77.55
53754;BME280;39667;52.274;20.964;2023-03-04T05:09:03;99719.26;;;1.03;77.66
53754;BME280;39667;52.274;20.964;2023-03-04T05:12:37;99711.48;;;1.04;77.45
53754;BME280;39667;52.274;20.964;2023-03-04T05:16:47;99711.49;;;1.05;77.29
53754;BME280;39667;52.274;20.964;2023-03-04T05:20:42;99707.20;;;0.97;77.29
53754;BME280;39667;52.274;20.964;2023-03-04T05:24:41;99707.48;;;0.94;77.34
53754;BME280;39667;52.274;20.964;2023-03-04T05:28:09;99704.77;;;0.98;77.51
53754;BME280;39667;52.274;20.964;2023-03-04T05:31:46;99695.68;;;1.03;77.47
53754;BME280;39667;52.274;20.964;2023-03-04T05:35:05;99700.58;;;1.05;77.20
53754;BME280;39667;52.274;20.964;2023-03-04T05:38:40;99695.89;;;1.05;77.27
53754;BME280;39667;52.274;20.964;2023-03-04T05:42:10;99702.20;;;1.08;77.16
53754;BME280;39667;52.274;20.964;2023-03-04T05:46:02;99701.52;;;1.08;77.41
53754;BME280;39667;52.274;20.964;2023-03-04T05:49:56;99702.61;;;1.12;77.20
53754;BME280;39667;52.274;20.964;2023-03-04T05:53:45;99692.91;;;1.13;77.15
53754;BME280;39667;52.274;20.964;2023-03-04T05:56:41;99695.52;;;1.13;77.21
53754;BME280;39667;52.274;20.964;2023-03-04T05:59:32;99688.27;;;1.15;77.24
53754;BME280;39667;52.274;20.964;2023-03-04T06:02:00;99681.87;;;1.16;77.17
53754;BME280;39667;52.274;20.964;2023-03-04T06:04:29;99674.27;;;1.18;77.13
53754;BME280;39667;52.274;20.964;2023-03-04T06:07:18;99671.31;;;1.17;77.20
53754;BME280;39667;52.274;20.964;2023-03-04T06:10:04;99675.58;;;1.14;77.31
53754;BME280;39667;52.274;20.964;2023-03-04T06:12:34;99669.46;;;1.10;77.35
53754;BME280;39667;52.274;20.964;2023-03-04T06:15:12;99662.46;;;1.07;77.39
53754;BME280;39667;52.274;20.964;2023-03-04T06:18:03;99664.67;;;1.05;77.58
53754;BME280;39667;52.274;20.964;2023-03-04T06:20:48;99657.74;;;1.05;77.66
53754;BME280;39667;52.274;20.964;2023-03-04T06:23:36;99660.67;;;1.04;77.75
53754;BME280;39667;52.274;20.964;2023-03-04T06:26:30;99655.65;;;1.05;77.81
53754;BME280;39667;52.274;20.964;2023-03-04T06:29:27;99656.60;;;1.08;77.73
53754;BME280;39667;52.274;20.964;2023-03-04T06:32:03;99658.83;;;1.07;77.88
53754;BME280;39667;52.274;20.964;2023-03-04T06:35:19;99658.25;;;1.05;77.98
53754;BME280;39667;52.274;20.964;2023-03-04T06:38:01;99657.38;;;1.04;78.11
53754;BME280;39667;52.274;20.964;2023-03-04T06:40:41;99658.27;;;1.05;78.06
53754;BME280;39667;52.274;20.964;2023-03-04T06:43:28;99660.88;;;1.06;78.17
53754;BME280;39667;52.274;20.964;2023-03-04T06:46:05;99662.44;;;1.06;78.14
53754;BME280;39667;52.274;20.964;2023-03-04T06:48:57;99661.77;;;1.07;78.19
53754;BME280;39667;52.274;20.964;2023-03-04T06:51:26;99661.31;;;1.10;78.24
53754;BME280;39667;52.274;20.964;2023-03-04T06:53:56;99655.57;;;1.10;78.18
53754;BME280;39667;52.274;20.964;2023-03-04T06:56:44;99662.67;;;1.08;78.28
53754;BME280;39667;52.274;20.964;2023-03-04T06:59:13;99665.95;;;1.08;78.36
53754;BME280;39667;52.274;20.964;2023-03-04T07:01:46;99660.61;;;1.10;78.44
53754;BME280;39667;52.274;20.964;2023-03-04T07:04:18;99658.20;;;1.11;78.41
53754;BME280;39667;52.274;20.964;2023-03-04T07:06:48;99651.91;;;1.09;78.47
53754;BME280;39667;52.274;20.964;2023-03-04T07:09:18;99665.05;;;1.06;78.56
53754;BME280;39667;52.274;20.964;2023-03-04T07:11:57;99665.14;;;1.11;78.77
53754;BME280;39667;52.274;20.964;2023-03-04T07:14:32;99663.64;;;1.15;78.56
53754;BME280;39667;52.274;20.964;2023-03-04T07:17:02;99664.55;;;1.17;78.46
53754;BME280;39667;52.274;20.964;2023-03-04T07:19:44;99659.85;;;1.16;78.35
53754;BME280;39667;52.274;20.964;2023-03-04T07:22:14;99656.95;;;1.19;78.40
53754;BME280;39667;52.274;20.964;2023-03-04T07:24:42;99659.74;;;1.20;78.35
53754;BME280;39667;52.274;20.964;2023-03-04T07:27:12;99663.72;;;1.19;78.30
53754;BME280;39667;52.274;20.964;2023-03-04T07:29:40;99658.83;;;1.17;78.35
53754;BME280;39667;52.274;20.964;2023-03-04T07:32:29;99653.14;;;1.19;78.33
53754;BME280;39667;52.274;20.964;2023-03-04T07:35:19;99652.20;;;1.26;78.17
53754;BME280;39667;52.274;20.964;2023-03-04T07:37:48;99653.41;;;1.26;78.25
53754;BME280;39667;52.274;20.964;2023-03-04T07:40:17;99645.75;;;1.24;78.13
53754;BME280;39667;52.274;20.964;2023-03-04T07:42:49;99641.11;;;1.27;78.01
53754;BME280;39667;52.274;20.964;2023-03-04T07:45:18;99640.79;;;1.28;78.10
53754;BME280;39667;52.274;20.964;2023-03-04T07:47:49;99648.45;;;1.30;78.04
53754;BME280;39667;52.274;20.964;2023-03-04T07:50:17;99636.70;;;1.32;77.90
53754;BME280;39667;52.274;20.964;2023-03-04T07:52:56;99635.70;;;1.35;77.99
53754;BME280;39667;52.274;20.964;2023-03-04T07:55:28;99626.91;;;1.39;77.71
53754;BME280;39667;52.274;20.964;2023-03-04T07:57:59;99629.00;;;1.40;77.61
53754;BME280;39667;52.274;20.964;2023-03-04T08:00:27;99626.74;;;1.39;77.54
53754;BME280;39667;52.274;20.964;2023-03-04T08:02:58;99619.11;;;1.40;77.53
53754;BME280;39667;52.274;20.964;2023-03-04T08:05:26;99624.75;;;1.45;77.63
53754;BME280;39667;52.274;20.964;2023-03-04T08:07:58;99616.52;;;1.52;77.45
53754;BME280;39667;52.274;20.964;2023-03-04T08:10:32;99617.25;;;1.54;77.18
53754;BME280;39667;52.274;20.964;2023-03-04T08:13:05;99617.77;;;1.54;77.01
53754;BME280;39667;52.274;20.964;2023-03-04T08:15:40;99616.45;;;1.47;76.89
53754;BME280;39667;52.274;20.964;2023-03-04T08:19:07;99611.54;;;1.43;77.02
53754;BME280;39667;52.274;20.964;2023-03-04T08:22:15;99610.00;;;1.44;76.97
53754;BME280;39667;52.274;20.964;2023-03-04T08:24:58;99609.63;;;1.43;76.90
53754;BME280;39667;52.274;20.964;2023-03-04T08:27:45;99608.55;;;1.41;76.71
53754;BME280;39667;52.274;20.964;2023-03-04T08:30:35;99611.48;;;1.40;76.82
53754;BME280;39667;52.274;20.964;2023-03-04T08:33:47;99601.66;;;1.43;76.81
53754;BME280;39667;52.274;20.964;2023-03-04T08:36:42;99602.13;;;1.41;76.75
53754;BME280;39667;52.274;20.964;2023-03-04T08:40:11;99602.29;;;1.41;76.63
53754;BME280;39667;52.274;20.964;2023-03-04T08:43:05;99606.83;;;1.41;76.80
53754;BME280;39667;52.274;20.964;2023-03-04T08:45:54;99601.52;;;1.45;76.83
53754;BME280;39667;52.274;20.964;2023-03-04T08:48:50;99603.28;;;1.49;76.76
53754;BME280;39667;52.274;20.964;2023-03-04T08:52:00;99607.84;;;1.52;76.54
53754;BME280;39667;52.274;20.964;2023-03-04T08:54:47;99604.55;;;1.51;76.56
53754;BME280;39667;52.274;20.964;2023-03-04T08:57:16;99601.09;;;1.52;76.65
53754;BME280;39667;52.274;20.964;2023-03-04T08:59:57;99597.95;;;1.52;76.49
53754;BME280;39667;52.274;20.964;2023-03-04T09:02:48;99599.20;;;1.54;76.67
53754;BME280;39667;52.274;20.964;2023-03-04T09:06:02;99585.73;;;1.58;76.42
53754;BME280;39667;52.274;20.964;2023-03-04T09:08:33;99586.59;;;1.58;76.36
53754;BME280;39667;52.274;20.964;2023-03-04T09:11:21;99584.91;;;1.62;76.51
53754;BME280;39667;52.274;20.964;2023-03-04T09:14:11;99585.84;;;1.67;76.32
53754;BME280;39667;52.274;20.964;2023-03-04T09:17:23;99574.92;;;1.68;76.16
53754;BME280;39667;52.274;20.964;2023-03-04T09:19:55;99573.56;;;1.70;76.24
53754;BME280;39667;52.274;20.964;2023-03-04T09:22:55;99571.20;;;1.74;76.32
53754;BME280;39667;52.274;20.964;2023-03-04T09:25:49;99572.10;;;1.77;76.32
53754;BME280;39667;52.274;20.964;2023-03-04T09:28:22;99577.50;;;1.78;76.03
53754;BME280;39667;52.274;20.964;2023-03-04T09:31:14;99579.20;;;1.75;76.10
53754;BME280;39667;52.274;20.964;2023-03-04T09:33:44;99573.80;;;1.74;76.19
53754;BME280;39667;52.274;20.964;2023-03-04T09:36:15;99578.17;;;1.77;76.29
53754;BME280;39667;52.274;20.964;2023-03-04T09:38:49;99574.38;;;1.78;76.16
53754;BME280;39667;52.274;20.964;2023-03-04T09:41:22;99573.13;;;1.75;76.06
53754;BME280;39667;52.274;20.964;2023-03-04T09:44:35;99569.29;;;1.74;76.32
53754;BME280;39667;52.274;20.964;2023-03-04T09:47:53;99566.02;;;1.77;76.37
53754;BME280;39667;52.274;20.964;2023-03-04T09:50:24;99562.52;;;1.74;76.37
53754;BME280;39667;52.274;20.964;2023-03-04T09:53:03;99563.75;;;1.75;76.62
53754;BME280;39667;52.274;20.964;2023-03-04T09:55:39;99558.08;;;1.80;76.56
53754;BME280;39667;52.274;20.964;2023-03-04T09:58:38;99556.03;;;1.83;76.54
53754;BME280;39667;52.274;20.964;2023-03-04T10:01:19;99548.27;;;1.86;76.63
53754;BME280;39667;52.274;20.964;2023-03-04T10:03:58;99560.92;;;1.86;76.55
53754;BME280;39667;52.274;20.964;2023-03-04T10:06:28;99552.39;;;1.83;76.47
53754;BME280;39667;52.274;20.964;2023-03-04T10:12:15;99542.03;;;1.89;76.63
53754;BME280;39667;52.274;20.964;2023-03-04T10:15:02;99543.09;;;1.90;76.50
53754;BME280;39667;52.274;20.964;2023-03-04T10:17:36;99539.42;;;1.89;76.51
53754;BME280;39667;52.274;20.964;2023-03-04T10:20:19;99536.52;;;1.92;76.66
53754;BME280;39667;52.274;20.964;2023-03-04T10:22:51;99532.40;;;1.95;76.44
53754;BME280;39667;52.274;20.964;2023-03-04T10:34:00;99522.83;;;2.08;76.23
53754;BME280;39667;52.274;20.964;2023-03-04T10:39:09;99523.23;;;2.14;76.33
53754;BME280;39667;52.274;20.964;2023-03-04T10:41:53;99508.48;;;2.14;76.40
53754;BME280;39667;52.274;20.964;2023-03-04T10:44:23;99504.95;;;2.11;76.76
53754;BME280;39667;52.274;20.964;2023-03-04T10:47:43;99504.27;;;2.11;77.14
53754;BME280;39667;52.274;20.964;2023-03-04T10:50:46;99501.95;;;2.21;77.28
53754;BME280;39667;52.274;20.964;2023-03-04T10:53:32;99500.23;;;2.25;77.36
53754;BME280;39667;52.274;20.964;2023-03-04T10:56:35;99500.45;;;2.27;77.63
53754;BME280;39667;52.274;20.964;2023-03-04T11:00:28;99497.83;;;2.27;77.72
53754;BME280;39667;52.274;20.964;2023-03-04T11:06:20;99497.42;;;2.20;78.27
53754;BME280;39667;52.274;20.964;2023-03-04T11:08:57;99491.80;;;2.15;78.41
53754;BME280;39667;52.274;20.964;2023-03-04T11:11:37;99488.16;;;2.15;78.76
53754;BME280;39667;52.274;20.964;2023-03-04T11:14:21;99489.05;;;2.18;79.06
53754;BME280;39667;52.274;20.964;2023-03-04T11:16:55;99488.38;;;2.18;78.93
53754;BME280;39667;52.274;20.964;2023-03-04T11:19:37;99489.04;;;2.16;79.13
53754;BME280;39667;52.274;20.964;2023-03-04T11:22:05;99489.04;;;2.16;79.46
53754;BME280;39667;52.274;20.964;2023-03-04T11:24:36;99485.40;;;2.16;79.68
53754;BME280;39667;52.274;20.964;2023-03-04T11:27:29;99483.49;;;2.18;79.72
53754;BME280;39667;52.274;20.964;2023-03-04T11:33:07;99476.73;;;2.19;80.01
53754;BME280;39667;52.274;20.964;2023-03-04T11:39:07;99475.59;;;2.26;80.09
53754;BME280;39667;52.274;20.964;2023-03-04T11:41:49;99466.41;;;2.30;80.19
53754;BME280;39667;52.274;20.964;2023-03-04T11:44:22;99468.34;;;2.32;80.11
53754;BME280;39667;52.274;20.964;2023-03-04T12:04:39;99465.98;;;2.60;80.29
53754;BME280;39667;52.274;20.964;2023-03-04T12:16:37;99461.64;;;2.60;80.56
53754;BME280;39667;52.274;20.964;2023-03-04T12:29:39;99471.15;;;2.54;80.69
53754;BME280;39667;52.274;20.964;2023-03-04T12:32:47;99464.71;;;2.54;80.92
53754;BME280;39667;52.274;20.964;2023-03-04T12:35:37;99468.27;;;2.61;80.88
53754;BME280;39667;52.274;20.964;2023-03-04T12:44:20;99458.38;;;2.88;80.75
53754;BME280;39667;52.274;20.964;2023-03-04T12:55:55;99453.67;;;3.12;79.81
53754;BME280;39667;52.274;20.964;2023-03-04T12:58:30;99449.73;;;3.20;79.46
53754;BME280;39667;52.274;20.964;2023-03-04T13:04:29;99443.65;;;3.24;78.83
53754;BME280;39667;52.274;20.964;2023-03-04T13:10:26;99443.42;;;3.49;78.57
53754;BME280;39667;52.274;20.964;2023-03-04T13:13:01;99437.77;;;3.73;78.52
53754;BME280;39667;52.274;20.964;2023-03-04T13:15:35;99435.92;;;3.96;77.80
53754;BME280;39667;52.274;20.964;2023-03-04T13:18:32;99432.45;;;4.06;77.05
53754;BME280;39667;52.274;20.964;2023-03-04T13:21:22;99431.59;;;4.05;76.11
53754;BME280;39667;52.274;20.964;2023-03-04T13:24:47;99437.15;;;4.01;75.82
53754;BME280;39667;52.274;20.964;2023-03-04T13:36:56;99483.23;;;3.74;74.77
53754;BME280;39667;52.274;20.964;2023-03-04T13:43:26;99487.05;;;2.44;76.18
53754;BME280;39667;52.274;20.964;2023-03-04T13:45:57;99485.25;;;2.04;77.35
53754;BME280;39667;52.274;20.964;2023-03-04T13:51:41;99478.38;;;1.51;78.50
53754;BME280;39667;52.274;20.964;2023-03-04T13:54:25;99462.50;;;1.44;78.43
53754;BME280;39667;52.274;20.964;2023-03-04T13:59:53;99443.41;;;1.44;77.94
53754;BME280;39667;52.274;20.964;2023-03-04T14:02:24;99441.39;;;1.48;77.76
53754;BME280;39667;52.274;20.964;2023-03-04T14:05:14;99438.52;;;1.55;77.31
53754;BME280;39667;52.274;20.964;2023-03-04T14:07:46;99433.02;;;1.76;76.97
53754;BME280;39667;52.274;20.964;2023-03-04T14:10:22;99433.09;;;1.97;76.46
53754;BME280;39667;52.274;20.964;2023-03-04T14:12:57;99438.18;;;2.21;75.73
53754;BME280;39667;52.274;20.964;2023-03-04T14:15:29;99444.12;;;2.44;74.89
53754;BME280;39667;52.274;20.964;2023-03-04T14:18:01;99440.11;;;2.63;74.50
53754;BME280;39667;52.274;20.964;2023-03-04T14:23:34;99440.70;;;2.97;73.47
53754;BME280;39667;52.274;20.964;2023-03-04T14:26:20;99442.69;;;3.10;72.60
53754;BME280;39667;52.274;20.964;2023-03-04T14:30:01;99434.89;;;3.16;71.25
53754;BME280;39667;52.274;20.964;2023-03-04T14:32:31;99441.38;;;3.20;69.96
53754;BME280;39667;52.274;20.964;2023-03-04T14:35:16;99446.98;;;3.28;70.04
53754;BME280;39667;52.274;20.964;2023-03-04T14:38:02;99449.28;;;3.37;69.53
53754;BME280;39667;52.274;20.964;2023-03-04T14:40:45;99453.86;;;3.48;68.82
53754;BME280;39667;52.274;20.964;2023-03-04T14:43:21;99451.11;;;3.54;68.27
53754;BME280;39667;52.274;20.964;2023-03-04T14:45:57;99454.62;;;3.62;68.44
53754;BME280;39667;52.274;20.964;2023-03-04T14:48:31;99457.27;;;3.72;67.52
53754;BME280;39667;52.274;20.964;2023-03-04T14:51:00;99456.25;;;3.80;67.26
53754;BME280;39667;52.274;20.964;2023-03-04T14:53:31;99461.98;;;3.75;64.63
53754;BME280;39667;52.274;20.964;2023-03-04T14:58:55;99460.98;;;3.46;64.02
53754;BME280;39667;52.274;20.964;2023-03-04T15:04:18;99461.77;;;3.29;63.40
53754;BME280;39667;52.274;20.964;2023-03-04T15:06:52;99467.13;;;3.21;62.29
53754;BME280;39667;52.274;20.964;2023-03-04T15:09:22;99467.24;;;3.14;62.70
53754;BME280;39667;52.274;20.964;2023-03-04T15:11:56;99471.73;;;3.05;60.62
53754;BME280;39667;52.274;20.964;2023-03-04T15:14:50;99472.36;;;2.97;59.81
53754;BME280;39667;52.274;20.964;2023-03-04T15:17:33;99485.52;;;2.90;59.65
53754;BME280;39667;52.274;20.964;2023-03-04T15:25:14;99505.06;;;2.77;60.41
53754;BME280;39667;52.274;20.964;2023-03-04T15:27:47;99503.14;;;2.74;59.24
53754;BME280;39667;52.274;20.964;2023-03-04T15:30:22;99511.79;;;2.70;58.17
53754;BME280;39667;52.274;20.964;2023-03-04T15:32:55;99512.11;;;2.66;56.82
53754;BME280;39667;52.274;20.964;2023-03-04T15:35:33;99526.86;;;2.63;56.93
53754;BME280;39667;52.274;20.964;2023-03-04T15:38:11;99538.52;;;2.63;56.09
53754;BME280;39667;52.274;20.964;2023-03-04T15:40:48;99541.90;;;2.55;54.25
53754;BME280;39667;52.274;20.964;2023-03-04T15:43:20;99560.61;;;2.47;54.56
53754;BME280;39667;52.274;20.964;2023-03-04T15:45:54;99565.91;;;2.39;54.69
53754;BME280;39667;52.274;20.964;2023-03-04T15:48:23;99564.79;;;2.33;54.52
53754;BME280;39667;52.274;20.964;2023-03-04T15:50:57;99576.57;;;2.30;55.14
53754;BME280;39667;52.274;20.964;2023-03-04T15:53:37;99581.41;;;2.28;54.68
53754;BME280;39667;52.274;20.964;2023-03-04T15:56:12;99597.12;;;2.18;54.51
53754;BME280;39667;52.274;20.964;2023-03-04T16:01:37;99609.04;;;2.13;54.76
53754;BME280;39667;52.274;20.964;2023-03-04T16:04:04;99608.58;;;2.05;54.62
53754;BME280;39667;52.274;20.964;2023-03-04T16:06:33;99622.23;;;1.99;54.45
53754;BME280;39667;52.274;20.964;2023-03-04T16:09:11;99624.91;;;1.92;53.86
53754;BME280;39667;52.274;20.964;2023-03-04T16:11:48;99628.98;;;1.84;53.86
53754;BME280;39667;52.274;20.964;2023-03-04T16:14:20;99635.34;;;1.80;53.83
53754;BME280;39667;52.274;20.964;2023-03-04T16:16:51;99637.37;;;1.76;53.84
53754;BME280;39667;52.274;20.964;2023-03-04T16:19:19;99638.83;;;1.68;53.07
53754;BME280;39667;52.274;20.964;2023-03-04T16:21:53;99647.70;;;1.59;52.43
53754;BME280;39667;52.274;20.964;2023-03-04T16:24:20;99659.73;;;1.51;52.33
53754;BME280;39667;52.274;20.964;2023-03-04T16:26:48;99663.61;;;1.45;51.62
53754;BME280;39667;52.274;20.964;2023-03-04T16:29:18;99671.92;;;1.33;49.65
53754;BME280;39667;52.274;20.964;2023-03-04T16:31:45;99672.48;;;1.25;50.31
53754;BME280;39667;52.274;20.964;2023-03-04T16:34:11;99668.27;;;1.22;50.21
53754;BME280;39667;52.274;20.964;2023-03-04T16:36:38;99674.40;;;1.15;48.89
53754;BME280;39667;52.274;20.964;2023-03-04T16:39:09;99681.22;;;1.09;48.48
53754;BME280;39667;52.274;20.964;2023-03-04T16:41:39;99685.31;;;1.05;48.95
53754;BME280;39667;52.274;20.964;2023-03-04T16:44:09;99685.84;;;1.05;49.37
53754;BME280;39667;52.274;20.964;2023-03-04T16:46:40;99694.13;;;1.03;48.72
53754;BME280;39667;52.274;20.964;2023-03-04T16:49:09;99697.02;;;1.00;48.14
53754;BME280;39667;52.274;20.964;2023-03-04T16:51:40;99710.17;;;0.98;48.34
53754;BME280;39667;52.274;20.964;2023-03-04T16:54:17;99715.36;;;0.97;48.31
53754;BME280;39667;52.274;20.964;2023-03-04T16:56:45;99718.10;;;0.96;47.61
53754;BME280;39667;52.274;20.964;2023-03-04T16:59:14;99719.25;;;0.92;47.64
53754;BME280;39667;52.274;20.964;2023-03-04T17:01:42;99724.25;;;0.91;47.99
53754;BME280;39667;52.274;20.964;2023-03-04T17:04:11;99726.12;;;0.89;47.79
53754;BME280;39667;52.274;20.964;2023-03-04T17:06:39;99738.05;;;0.87;47.91
53754;BME280;39667;52.274;20.964;2023-03-04T17:09:07;99742.14;;;0.84;47.33
53754;BME280;39667;52.274;20.964;2023-03-04T17:11:35;99746.45;;;0.83;48.02
53754;BME280;39667;52.274;20.964;2023-03-04T17:14:04;99753.91;;;0.83;47.95
53754;BME280;39667;52.274;20.964;2023-03-04T17:16:31;99755.76;;;0.81;47.62
53754;BME280;39667;52.274;20.964;2023-03-04T17:18:59;99753.59;;;0.77;47.13
53754;BME280;39667;52.274;20.964;2023-03-04T17:21:29;99762.73;;;0.73;47.82
53754;BME280;39667;52.274;20.964;2023-03-04T17:23:57;99765.92;;;0.77;47.83
53754;BME280;39667;52.274;20.964;2023-03-04T17:26:26;99776.02;;;0.80;48.04
53754;BME280;39667;52.274;20.964;2023-03-04T17:28:53;99772.56;;;0.80;47.64
53754;BME280;39667;52.274;20.964;2023-03-04T17:31:21;99774.05;;;0.77;47.86
53754;BME280;39667;52.274;20.964;2023-03-04T17:33:49;99784.60;;;0.75;47.81
53754;BME280;39667;52.274;20.964;2023-03-04T17:36:17;99791.95;;;0.70;47.78
53754;BME280;39667;52.274;20.964;2023-03-04T17:38:44;99790.20;;;0.69;48.03
53754;BME280;39667;52.274;20.964;2023-03-04T17:41:15;99790.73;;;0.70;48.16
53754;BME280;39667;52.274;20.964;2023-03-04T17:43:48;99785.31;;;0.68;47.21
53754;BME280;39667;52.274;20.964;2023-03-04T17:46:19;99790.25;;;0.63;47.52
53754;BME280;39667;52.274;20.964;2023-03-04T17:48:51;99795.06;;;0.61;47.63
53754;BME280;39667;52.274;20.964;2023-03-04T17:51:28;99799.83;;;0.58;46.96
53754;BME280;39667;52.274;20.964;2023-03-04T17:53:57;99797.81;;;0.52;47.10
53754;BME280;39667;52.274;20.964;2023-03-04T17:56:34;99794.06;;;0.47;46.29
53754;BME280;39667;52.274;20.964;2023-03-04T17:59:06;99803.87;;;0.37;45.81